MUCF/CFG METAR and TAF weather

Enter ICAO airport designator
Station Type Date Time Source
MUCF METAR 2024/05/28 21:59 UTC NOAA

MUCF 282159Z AUTO 21010KT 170V240 31/24 Q1014


Station Type Date Time Source
MUCF Decoded METAR 2024/05/28 21:59 UTC NOAA

Cienfuegos, Las Villas, Cuba (MUCF) 22-09N 080-24W 39M
May 28, 2024 - 05:59 PM EDT / 2024.05.28 2159 UTC
Wind: from the SSW (210 degrees) at 12 MPH (10 KT) (direction variable):0
Temperature: 87 F (31 C)
Heat index: 95.7 F (35.4 C):1
Dew Point: 75 F (24 C)
Relative Humidity: 66%
Pressure (altimeter): 29.94 in. Hg (1014 hPa)
ob: MUCF 282159Z AUTO 21010KT 170V240 31/24 Q1014
cycle: 22

Station Type Date Time Source
MUCF TAF 2024/05/28 18:03 UTC NOAA